createdAt,value
2018-06-29T00:00:27.990Z,25.90
2018-06-29T00:01:27.906Z,25.95
2018-06-29T00:02:27.898Z,25.85
2018-06-29T00:03:27.887Z,25.83
2018-06-29T00:04:27.904Z,25.90
2018-06-29T00:05:27.865Z,25.83
2018-06-29T00:06:27.890Z,25.87
2018-06-29T00:07:27.892Z,25.90
2018-06-29T00:08:27.830Z,25.85
2018-06-29T00:09:27.820Z,25.79
2018-06-29T00:10:27.809Z,25.80
2018-06-29T00:11:27.798Z,25.91
2018-06-29T00:12:27.829Z,25.85
2018-06-29T00:13:27.779Z,25.82
2018-06-29T00:14:27.802Z,25.82
2018-06-29T00:15:27.753Z,25.87
2018-06-29T00:16:27.798Z,25.90
2018-06-29T00:17:27.729Z,25.85
2018-06-29T00:18:27.756Z,25.79
2018-06-29T00:19:27.711Z,25.82
2018-06-29T00:20:27.718Z,25.80
2018-06-29T00:21:27.726Z,25.82
2018-06-29T00:22:27.678Z,25.79
2018-06-29T00:23:27.666Z,25.85
2018-06-29T00:24:27.716Z,25.87
2018-06-29T00:25:27.641Z,25.77
2018-06-29T00:26:27.655Z,25.83
2018-06-29T00:27:27.621Z,25.82
2018-06-29T00:28:27.646Z,25.82
2018-06-29T00:29:27.601Z,25.80
2018-06-29T00:30:27.622Z,25.80
2018-06-29T00:31:27.576Z,25.85
2018-06-29T00:32:27.579Z,25.83
2018-06-29T00:33:27.556Z,25.80
2018-06-29T00:34:27.545Z,25.85
2018-06-29T00:35:32.514Z,25.75
2018-06-29T00:36:27.523Z,25.82
2018-06-29T00:37:27.507Z,25.75
2018-06-29T00:38:27.528Z,25.87
2018-06-29T00:39:27.492Z,25.73
2018-06-29T00:40:27.476Z,25.73
2018-06-29T00:41:27.505Z,25.77
2018-06-29T00:42:27.498Z,25.72
2018-06-29T00:43:27.444Z,25.77
2018-06-29T00:44:27.445Z,25.77
2018-06-29T00:45:27.420Z,25.75
2018-06-29T00:46:27.419Z,25.72
2018-06-29T00:47:27.446Z,25.73
2018-06-29T00:48:27.394Z,25.76
2018-06-29T00:49:27.428Z,25.77
2018-06-29T00:50:27.378Z,25.77
2018-06-29T00:51:27.360Z,25.76
2018-06-29T00:52:27.344Z,25.76
2018-06-29T00:53:27.376Z,25.69
2018-06-29T00:54:27.320Z,25.73
2018-06-29T00:55:27.631Z,25.69
2018-06-29T00:56:27.343Z,25.72
2018-06-29T00:57:27.316Z,25.69
2018-06-29T00:58:27.282Z,25.69
2018-06-29T00:59:27.319Z,25.73
2018-06-29T01:00:27.253Z,25.69
2018-06-29T01:01:27.293Z,25.65
2018-06-29T01:02:27.235Z,25.65
2018-06-29T01:03:27.483Z,25.69
2018-06-29T01:04:27.215Z,25.67
2018-06-29T01:05:27.260Z,25.69
2018-06-29T01:06:27.192Z,25.67
2018-06-29T01:07:27.181Z,25.73
2018-06-29T01:08:27.174Z,25.65
2018-06-29T01:09:27.160Z,25.69
2018-06-29T01:10:27.209Z,25.67
2018-06-29T01:11:27.178Z,25.62
2018-06-29T01:12:27.124Z,25.73
2018-06-29T01:13:27.123Z,25.64
2018-06-29T01:14:27.104Z,25.65
2018-06-29T01:15:27.095Z,25.65
2018-06-29T01:16:27.104Z,25.72
2018-06-29T01:17:27.111Z,25.67
2018-06-29T01:18:27.066Z,25.57
2018-06-29T01:19:27.052Z,25.65
2018-06-29T01:20:27.035Z,25.65
2018-06-29T01:21:27.079Z,25.67
2018-06-29T01:22:27.071Z,25.65
2018-06-29T01:23:27.010Z,25.69
2018-06-29T01:24:27.030Z,25.67
2018-06-29T01:25:26.983Z,25.64
2018-06-29T01:26:26.970Z,25.61
2018-06-29T01:27:26.967Z,25.65
2018-06-29T01:28:26.984Z,25.69
2018-06-29T01:29:26.938Z,25.69
2018-06-29T01:30:26.953Z,25.55
2018-06-29T01:31:26.970Z,25.54
2018-06-29T01:32:26.907Z,25.64
2018-06-29T01:33:26.896Z,25.64
2018-06-29T01:34:26.925Z,25.64
2018-06-29T01:35:26.873Z,25.54
2018-06-29T01:36:31.764Z,25.62
2018-06-29T01:37:26.851Z,25.64
2018-06-29T01:38:26.886Z,25.51
2018-06-29T01:39:26.828Z,25.61
2018-06-29T01:40:27.244Z,25.51
2018-06-29T01:41:26.872Z,25.54
2018-06-29T01:42:26.791Z,25.60
2018-06-29T01:43:26.806Z,25.57
2018-06-29T01:44:26.773Z,25.54
2018-06-29T01:45:26.796Z,25.57
2018-06-29T01:46:26.790Z,25.64
2018-06-29T01:47:26.739Z,25.60
2018-06-29T01:48:26.730Z,25.54
2018-06-29T01:49:26.733Z,25.57
2018-06-29T01:50:26.713Z,25.55
2018-06-29T01:51:26.696Z,25.61
2018-06-29T01:52:26.759Z,25.58
2018-06-29T01:53:26.674Z,25.57
2018-06-29T01:54:26.668Z,25.60
2018-06-29T01:55:26.652Z,25.57
2018-06-29T01:56:26.643Z,25.61
2018-06-29T01:57:26.642Z,25.58
2018-06-29T01:58:26.655Z,25.58
2018-06-29T01:59:26.648Z,25.60
2018-06-29T02:00:26.600Z,25.55
2018-06-29T02:01:26.592Z,25.55
2018-06-29T02:02:26.580Z,25.52
2018-06-29T02:03:26.566Z,25.57
2018-06-29T02:04:26.605Z,25.51
2018-06-29T02:05:26.543Z,25.57
2018-06-29T02:06:26.578Z,25.54
2018-06-29T02:07:26.544Z,25.55
2018-06-29T02:08:26.516Z,25.57
2018-06-29T02:09:26.501Z,25.57
2018-06-29T02:10:26.543Z,25.60
2018-06-29T02:11:26.477Z,25.58
2018-06-29T02:12:26.468Z,25.54
2018-06-29T02:13:26.546Z,25.52
2018-06-29T02:14:26.448Z,25.52
2018-06-29T02:15:26.456Z,25.47
2018-06-29T02:16:26.462Z,25.47
2018-06-29T02:17:26.418Z,25.46
2018-06-29T02:18:26.405Z,25.54
2018-06-29T02:19:26.394Z,25.57
2018-06-29T02:20:26.411Z,25.45
2018-06-29T02:21:26.370Z,25.50
2018-06-29T02:22:26.400Z,25.46
2018-06-29T02:23:26.367Z,25.54
2018-06-29T02:24:26.336Z,25.51
2018-06-29T02:25:26.322Z,25.57
2018-06-29T02:26:26.313Z,25.54
2018-06-29T02:27:26.353Z,25.58
2018-06-29T02:28:26.328Z,25.47
2018-06-29T02:29:26.308Z,25.51
2018-06-29T02:30:26.275Z,25.47
2018-06-29T02:31:26.265Z,25.46
2018-06-29T02:32:26.252Z,25.43
2018-06-29T02:33:26.247Z,25.50
2018-06-29T02:34:26.303Z,25.45
2018-06-29T02:35:26.220Z,25.47
2018-06-29T02:36:26.219Z,25.50
2018-06-29T02:37:31.087Z,25.45
2018-06-29T02:38:26.195Z,25.45
2018-06-29T02:39:26.177Z,25.47
2018-06-29T02:40:26.200Z,25.51
2018-06-29T02:41:26.185Z,25.46
2018-06-29T02:42:26.141Z,25.45
2018-06-29T02:43:26.132Z,25.47
2018-06-29T02:44:26.125Z,25.50
2018-06-29T02:45:26.135Z,25.45
2018-06-29T02:46:26.134Z,25.47
2018-06-29T02:47:26.085Z,25.46
2018-06-29T02:48:26.115Z,25.43
2018-06-29T02:49:26.068Z,25.45
2018-06-29T02:50:26.055Z,25.52
2018-06-29T02:51:26.075Z,25.51
2018-06-29T02:52:26.084Z,25.47
2018-06-29T02:53:26.026Z,25.54
2018-06-29T02:54:26.013Z,25.45
2018-06-29T02:55:26.040Z,25.46
2018-06-29T02:56:25.987Z,25.50
2018-06-29T02:57:25.978Z,25.51
2018-06-29T02:58:26.025Z,25.51
2018-06-29T02:59:25.956Z,25.46
2018-06-29T03:00:25.941Z,25.50
2018-06-29T03:01:25.933Z,25.43
2018-06-29T03:02:25.955Z,25.47
2018-06-29T03:03:25.914Z,25.43
2018-06-29T03:04:25.958Z,25.52
2018-06-29T03:05:25.893Z,25.39
2018-06-29T03:06:25.882Z,25.36
2018-06-29T03:07:25.870Z,25.47
2018-06-29T03:08:25.859Z,25.55
2018-06-29T03:09:25.896Z,25.50
2018-06-29T03:10:25.869Z,25.47
2018-06-29T03:11:25.827Z,25.46
2018-06-29T03:12:25.833Z,25.45
2018-06-29T03:13:25.807Z,25.50
2018-06-29T03:14:25.791Z,25.45
2018-06-29T03:15:25.864Z,25.42
2018-06-29T03:16:25.812Z,25.46
2018-06-29T03:17:25.761Z,25.50
2018-06-29T03:18:25.749Z,25.47
2018-06-29T03:19:25.743Z,25.46
2018-06-29T03:20:25.721Z,25.42
2018-06-29T03:21:25.753Z,25.46
2018-06-29T03:22:25.719Z,25.45
2018-06-29T03:23:25.746Z,25.51
2018-06-29T03:24:25.682Z,25.42
2018-06-29T03:25:25.675Z,25.40
2018-06-29T03:26:25.664Z,25.52
2018-06-29T03:27:25.689Z,25.45
2018-06-29T03:28:25.656Z,25.39
2018-06-29T03:29:25.629Z,25.42
2018-06-29T03:30:25.654Z,25.45
2018-06-29T03:31:25.606Z,25.42
2018-06-29T03:32:25.593Z,25.45
2018-06-29T03:33:25.622Z,25.47
2018-06-29T03:34:25.596Z,25.45
2018-06-29T03:35:25.876Z,25.45
2018-06-29T03:36:25.553Z,25.47
2018-06-29T03:37:25.607Z,25.45
2018-06-29T03:38:30.444Z,25.42
2018-06-29T03:39:25.574Z,25.46
2018-06-29T03:40:25.582Z,25.45
2018-06-29T03:41:25.511Z,25.50
2018-06-29T03:42:25.492Z,25.43
2018-06-29T03:43:25.488Z,25.46
2018-06-29T03:44:25.610Z,25.50
2018-06-29T03:45:25.454Z,25.46
2018-06-29T03:46:25.445Z,25.50
2018-06-29T03:47:25.446Z,25.46
2018-06-29T03:48:25.421Z,25.50
2018-06-29T03:49:25.423Z,25.51
2018-06-29T03:50:25.435Z,25.47
2018-06-29T03:51:25.431Z,25.47
2018-06-29T03:52:25.382Z,25.57
2018-06-29T03:53:25.390Z,25.51
2018-06-29T03:54:25.357Z,25.57
2018-06-29T03:55:25.352Z,25.57
2018-06-29T03:56:25.365Z,25.55
2018-06-29T03:57:25.330Z,25.55
2018-06-29T03:58:25.349Z,25.54
2018-06-29T03:59:25.303Z,25.55
2018-06-29T04:00:25.300Z,25.55
2018-06-29T04:01:25.283Z,25.57
2018-06-29T04:02:25.416Z,25.62
2018-06-29T04:03:25.337Z,25.57
2018-06-29T04:04:25.250Z,25.60
2018-06-29T04:05:25.274Z,25.57
2018-06-29T04:06:25.258Z,25.55
2018-06-29T04:07:25.216Z,25.58
2018-06-29T04:08:25.239Z,25.52
2018-06-29T04:09:25.223Z,25.55
2018-06-29T04:10:25.185Z,25.55
2018-06-29T04:11:25.173Z,25.51
2018-06-29T04:12:25.200Z,25.55
2018-06-29T04:13:25.153Z,25.58
2018-06-29T04:14:25.207Z,25.54
2018-06-29T04:15:25.129Z,25.57
2018-06-29T04:16:25.438Z,25.60
2018-06-29T04:17:25.111Z,25.58
2018-06-29T04:18:25.103Z,25.60
2018-06-29T04:19:25.140Z,25.58
2018-06-29T04:20:25.122Z,25.58
2018-06-29T04:21:25.061Z,25.60
2018-06-29T04:22:25.051Z,25.61
2018-06-29T04:23:25.043Z,25.60
2018-06-29T04:24:25.100Z,25.57
2018-06-29T04:25:25.017Z,25.55
2018-06-29T04:26:25.198Z,25.65
2018-06-29T04:27:25.021Z,25.62
2018-06-29T04:28:24.991Z,25.57
2018-06-29T04:29:24.980Z,25.61
2018-06-29T04:30:24.961Z,25.52
2018-06-29T04:31:24.956Z,25.57
2018-06-29T04:32:24.978Z,25.62
2018-06-29T04:33:24.966Z,25.67
2018-06-29T04:34:24.944Z,25.52
2018-06-29T04:35:24.914Z,25.62
2018-06-29T04:36:24.902Z,25.54
2018-06-29T04:37:24.887Z,25.60
2018-06-29T04:38:24.916Z,25.64
2018-06-29T04:39:24.868Z,25.62
2018-06-29T04:40:29.771Z,25.72
2018-06-29T04:41:24.842Z,25.62
2018-06-29T04:42:24.831Z,25.70
2018-06-29T04:43:24.823Z,25.69
2018-06-29T04:44:24.847Z,25.67
2018-06-29T04:45:24.798Z,25.64
2018-06-29T04:46:24.791Z,25.62
2018-06-29T04:47:24.832Z,25.69
2018-06-29T04:48:24.766Z,25.62
2018-06-29T04:49:24.836Z,25.67
2018-06-29T04:50:24.780Z,25.61
2018-06-29T04:51:24.737Z,25.69
2018-06-29T04:52:24.722Z,25.69
2018-06-29T04:53:24.797Z,25.70
2018-06-29T04:54:24.738Z,25.73
2018-06-29T04:55:24.731Z,25.61
2018-06-29T04:56:24.677Z,25.62
2018-06-29T04:57:24.673Z,25.64
2018-06-29T04:58:24.658Z,25.69
2018-06-29T04:59:24.653Z,25.70
2018-06-29T05:00:24.650Z,25.70
2018-06-29T05:01:24.709Z,25.70
2018-06-29T05:02:24.616Z,25.75
2018-06-29T05:03:24.612Z,25.69
2018-06-29T05:04:24.596Z,25.72
2018-06-29T05:05:24.585Z,25.72
2018-06-29T05:06:24.597Z,25.72
2018-06-29T05:07:24.558Z,25.77
2018-06-29T05:08:24.587Z,25.72
2018-06-29T05:09:24.536Z,25.75
2018-06-29T05:10:24.530Z,25.73
2018-06-29T05:11:24.515Z,25.72
2018-06-29T05:12:24.556Z,25.73
2018-06-29T05:13:24.493Z,25.76
2018-06-29T05:14:24.482Z,25.70
2018-06-29T05:15:24.532Z,25.67
2018-06-29T05:16:24.460Z,25.77
2018-06-29T05:17:24.448Z,25.79
2018-06-29T05:18:24.487Z,25.80
2018-06-29T05:19:24.426Z,25.77
2018-06-29T05:20:24.423Z,25.70
2018-06-29T05:21:24.406Z,25.72
2018-06-29T05:22:24.437Z,25.75
2018-06-29T05:23:24.385Z,25.79
2018-06-29T05:24:24.409Z,25.75
2018-06-29T05:25:24.371Z,25.83
2018-06-29T05:26:24.350Z,25.77
2018-06-29T05:27:24.339Z,25.77
2018-06-29T05:28:24.330Z,25.83
2018-06-29T05:29:24.363Z,25.83
2018-06-29T05:30:24.339Z,25.88
2018-06-29T05:31:24.308Z,25.83
2018-06-29T05:32:24.281Z,25.82
2018-06-29T05:33:24.274Z,25.80
2018-06-29T05:34:24.261Z,25.79
2018-06-29T05:35:24.324Z,25.83
2018-06-29T05:36:25.177Z,25.87
2018-06-29T05:37:24.245Z,25.88
2018-06-29T05:38:24.222Z,25.80
2018-06-29T05:40:32.637Z,25.85
2018-06-29T05:41:37.507Z,25.90
2018-06-29T05:42:32.652Z,25.90
2018-06-29T05:43:32.576Z,25.91
2018-06-29T05:44:32.559Z,25.88
2018-06-29T05:45:32.551Z,25.88
2018-06-29T05:46:32.568Z,25.90
2018-06-29T05:47:32.521Z,25.85
2018-06-29T05:48:32.525Z,25.80
2018-06-29T05:49:32.543Z,25.87
2018-06-29T05:50:32.491Z,25.87
2018-06-29T05:51:32.487Z,25.83
2018-06-29T05:52:32.505Z,25.79
2018-06-29T05:53:32.463Z,25.82
2018-06-29T05:54:32.476Z,25.90
2018-06-29T05:55:32.438Z,25.87
2018-06-29T05:56:32.467Z,25.83
2018-06-29T05:57:32.525Z,25.82
2018-06-29T05:58:32.440Z,25.85
2018-06-29T05:59:32.630Z,25.90
2018-06-29T06:00:32.384Z,25.83
2018-06-29T06:01:32.375Z,25.87
2018-06-29T06:02:32.366Z,25.83
2018-06-29T06:03:32.392Z,25.92
2018-06-29T06:04:32.401Z,26.02
2018-06-29T06:05:32.326Z,25.88
2018-06-29T06:06:32.315Z,25.95
2018-06-29T06:07:32.306Z,25.97
2018-06-29T06:08:32.293Z,25.91
2018-06-29T06:09:32.284Z,25.95
2018-06-29T06:10:32.355Z,25.85
2018-06-29T06:11:32.261Z,25.92
2018-06-29T06:12:32.250Z,25.99
2018-06-29T06:13:32.248Z,25.95
2018-06-29T06:14:32.228Z,25.98
2018-06-29T06:15:32.219Z,25.97
2018-06-29T06:16:32.248Z,25.99
2018-06-29T06:17:32.233Z,25.94
2018-06-29T06:18:32.188Z,25.95
2018-06-29T06:19:32.177Z,25.98
2018-06-29T06:20:32.163Z,25.97
2018-06-29T06:21:32.154Z,26.01
2018-06-29T06:22:32.172Z,25.98
2018-06-29T06:23:32.131Z,26.01
2018-06-29T06:24:32.158Z,26.05
2018-06-29T06:25:32.109Z,25.95
2018-06-29T06:26:32.098Z,25.97
2018-06-29T06:27:32.085Z,25.98
2018-06-29T06:28:32.108Z,26.01
2018-06-29T06:29:32.066Z,25.99
2018-06-29T06:30:32.052Z,25.92
2018-06-29T06:31:32.089Z,26.01
2018-06-29T06:32:32.039Z,25.94
2018-06-29T06:33:32.021Z,26.02
2018-06-29T06:34:32.043Z,26.06
2018-06-29T06:35:31.996Z,25.98
2018-06-29T06:36:31.989Z,26.01
2018-06-29T06:37:31.982Z,25.99
2018-06-29T06:38:32.014Z,26.05
2018-06-29T06:39:31.953Z,25.97
2018-06-29T06:40:31.988Z,25.97
2018-06-29T06:41:31.957Z,25.98
2018-06-29T06:42:36.789Z,25.99
2018-06-29T06:43:31.911Z,26.01
2018-06-29T06:44:31.902Z,26.01
2018-06-29T06:45:31.935Z,25.98
2018-06-29T06:46:31.912Z,26.01
2018-06-29T06:47:31.864Z,26.02
2018-06-29T06:48:31.861Z,26.02
2018-06-29T06:49:31.846Z,26.05
2018-06-29T06:50:31.834Z,26.02
2018-06-29T06:51:31.822Z,26.05
2018-06-29T06:52:31.894Z,26.05
2018-06-29T06:53:31.812Z,26.01
2018-06-29T06:54:31.788Z,25.98
2018-06-29T06:55:31.787Z,25.99
2018-06-29T06:56:31.771Z,26.05
2018-06-29T06:57:31.758Z,26.05
2018-06-29T06:58:31.789Z,26.06
2018-06-29T06:59:31.840Z,26.05
2018-06-29T07:00:31.725Z,26.01
2018-06-29T07:01:31.712Z,26.13
2018-06-29T07:02:31.702Z,26.10
2018-06-29T07:03:31.691Z,26.10
2018-06-29T07:04:31.723Z,26.18
2018-06-29T07:05:31.671Z,26.12
2018-06-29T07:06:31.740Z,26.17
2018-06-29T07:07:31.665Z,26.07
2018-06-29T07:08:31.640Z,26.10
2018-06-29T07:09:31.632Z,26.13
2018-06-29T07:10:31.653Z,26.13
2018-06-29T07:11:31.806Z,26.21
2018-06-29T07:12:31.744Z,26.18
2018-06-29T07:13:31.696Z,26.10
2018-06-29T07:14:31.670Z,26.21
2018-06-29T07:15:31.665Z,26.21
2018-06-29T07:16:31.760Z,26.20
2018-06-29T07:17:31.538Z,26.25
2018-06-29T07:18:31.526Z,26.28
2018-06-29T07:19:31.517Z,26.26
2018-06-29T07:20:31.596Z,26.29
2018-06-29T07:23:35.556Z,26.32
2018-06-29T07:24:35.400Z,26.21
2018-06-29T07:25:35.329Z,26.30
2018-06-29T07:26:35.481Z,26.23
2018-06-29T07:27:35.182Z,26.30
2018-06-29T07:28:35.127Z,26.30
2018-06-29T07:29:35.163Z,26.29
2018-06-29T07:30:35.175Z,26.32
2018-06-29T07:31:35.292Z,26.21
2018-06-29T07:32:35.725Z,26.29
2018-06-29T07:33:35.164Z,26.30
2018-06-29T07:34:35.046Z,26.30
2018-06-29T07:35:35.363Z,26.33
2018-06-29T07:36:35.023Z,26.21
2018-06-29T07:37:35.014Z,26.29
2018-06-29T07:38:35.051Z,26.29
2018-06-29T07:39:34.994Z,26.29
2018-06-29T07:40:35.025Z,26.35
2018-06-29T07:41:34.971Z,26.32
2018-06-29T07:42:34.963Z,26.29
2018-06-29T07:43:39.820Z,26.29
2018-06-29T07:44:34.969Z,26.32
2018-06-29T07:45:34.931Z,26.25
2018-06-29T07:46:34.973Z,26.30
2018-06-29T07:47:34.956Z,26.33
2018-06-29T07:48:34.895Z,26.35
2018-06-29T07:49:34.892Z,26.37
2018-06-29T07:50:34.920Z,26.39
2018-06-29T07:51:34.874Z,26.40
2018-06-29T07:52:34.918Z,26.40
2018-06-29T07:53:34.837Z,26.45
2018-06-29T07:54:34.875Z,26.47
2018-06-29T07:55:34.816Z,26.45
2018-06-29T07:56:34.846Z,26.44
2018-06-29T07:57:34.797Z,26.48
2018-06-29T07:58:34.854Z,26.50
2018-06-29T07:59:34.779Z,26.44
2018-06-29T08:00:34.764Z,26.48
2018-06-29T08:01:34.790Z,26.47
2018-06-29T08:02:34.834Z,26.47
2018-06-29T08:03:34.733Z,26.48
2018-06-29T08:04:34.722Z,26.50
2018-06-29T08:05:34.709Z,26.52
2018-06-29T08:06:34.703Z,26.57
2018-06-29T08:07:34.691Z,26.55
2018-06-29T08:08:34.853Z,26.57
2018-06-29T08:09:34.671Z,26.54
2018-06-29T08:10:34.674Z,26.52
2018-06-29T08:11:34.646Z,26.58
2018-06-29T08:12:34.636Z,26.52
2018-06-29T08:13:34.621Z,26.57
2018-06-29T08:14:34.644Z,26.60
2018-06-29T08:15:34.653Z,26.57
2018-06-29T08:16:34.589Z,26.60
2018-06-29T08:17:34.591Z,26.57
2018-06-29T08:18:34.578Z,26.58
2018-06-29T08:19:34.559Z,26.55
2018-06-29T08:20:34.585Z,26.55
2018-06-29T08:21:34.537Z,26.58
2018-06-29T08:22:34.559Z,26.62
2018-06-29T08:23:34.537Z,26.57
2018-06-29T08:24:34.852Z,26.58
2018-06-29T08:25:34.542Z,26.52
2018-06-29T08:26:34.561Z,26.62
2018-06-29T08:27:34.472Z,26.50
2018-06-29T08:28:34.460Z,26.50
2018-06-29T08:29:34.491Z,26.60
2018-06-29T08:30:34.439Z,26.66
2018-06-29T08:31:34.453Z,26.62
2018-06-29T08:32:35.701Z,26.65
2018-06-29T08:33:34.446Z,26.66
2018-06-29T08:34:34.397Z,26.65
2018-06-29T08:35:34.388Z,26.69
2018-06-29T08:36:34.419Z,26.62
2018-06-29T08:37:34.366Z,26.65
2018-06-29T08:38:34.440Z,26.60
2018-06-29T08:39:34.343Z,26.73
2018-06-29T08:40:34.332Z,26.70
2018-06-29T08:41:34.325Z,26.73
2018-06-29T08:42:34.317Z,26.75
2018-06-29T08:43:34.342Z,26.70
2018-06-29T08:44:39.195Z,26.77
2018-06-29T08:45:34.313Z,26.75
2018-06-29T08:46:34.274Z,26.73
2018-06-29T08:47:34.265Z,26.70
2018-06-29T08:48:34.250Z,26.81
2018-06-29T08:49:34.279Z,26.70
2018-06-29T08:50:34.307Z,26.73
2018-06-29T08:51:34.220Z,26.72
2018-06-29T08:52:34.208Z,26.82
2018-06-29T08:53:34.197Z,26.80
2018-06-29T08:54:34.190Z,26.82
2018-06-29T08:55:34.178Z,26.85
2018-06-29T08:56:34.203Z,26.87
2018-06-29T08:57:34.218Z,26.87
2018-06-29T08:58:34.150Z,26.88
2018-06-29T08:59:34.136Z,26.87
2018-06-29T09:00:34.129Z,26.85
2018-06-29T09:01:34.120Z,26.85
2018-06-29T09:02:34.153Z,26.85
2018-06-29T09:03:34.095Z,26.87
2018-06-29T09:04:34.130Z,26.88
2018-06-29T09:05:34.083Z,26.87
2018-06-29T09:06:34.068Z,26.82
2018-06-29T09:07:34.065Z,26.87
2018-06-29T09:08:34.149Z,26.87
2018-06-29T09:09:34.034Z,26.80
2018-06-29T09:10:34.037Z,26.87
2018-06-29T09:11:34.078Z,26.84
2018-06-29T09:12:34.015Z,26.82
2018-06-29T09:13:34.032Z,26.95
2018-06-29T09:14:34.021Z,26.89
2018-06-29T09:15:33.984Z,26.91
2018-06-29T09:16:33.973Z,26.89
2018-06-29T09:17:34.277Z,26.91
2018-06-29T09:18:33.988Z,26.94
2018-06-29T09:19:34.051Z,26.91
2018-06-29T09:20:34.192Z,26.88
2018-06-29T09:21:34.912Z,26.85
2018-06-29T09:22:33.907Z,26.92
2018-06-29T09:23:33.893Z,26.91
2018-06-29T09:24:33.881Z,26.94
2018-06-29T09:25:33.956Z,26.89
2018-06-29T09:26:33.862Z,27.03
2018-06-29T09:27:33.889Z,26.97
2018-06-29T09:28:33.839Z,26.99
2018-06-29T09:29:33.831Z,27.00
2018-06-29T09:30:33.817Z,27.07
2018-06-29T09:31:33.845Z,27.06
2018-06-29T09:32:33.831Z,26.99
2018-06-29T09:33:33.783Z,27.07
2018-06-29T09:34:33.766Z,26.97
2018-06-29T09:35:33.974Z,27.04
2018-06-29T09:36:34.088Z,27.04
2018-06-29T09:37:34.154Z,27.07
2018-06-29T09:38:33.959Z,27.09
2018-06-29T09:39:33.760Z,27.04
2018-06-29T09:40:33.712Z,27.07
2018-06-29T09:41:33.691Z,27.07
2018-06-29T09:42:33.783Z,27.12
2018-06-29T09:43:33.749Z,27.06
2018-06-29T09:44:33.994Z,27.09
2018-06-29T09:45:38.568Z,27.14
2018-06-29T09:46:34.670Z,27.13
2018-06-29T09:47:33.625Z,27.10
2018-06-29T09:48:33.613Z,27.12
2018-06-29T09:49:33.654Z,27.13
2018-06-29T09:50:33.594Z,27.12
2018-06-29T09:51:33.592Z,27.14
2018-06-29T09:52:33.572Z,27.14
2018-06-29T09:53:33.603Z,27.12
2018-06-29T09:54:33.554Z,27.19
2018-06-29T09:55:33.568Z,27.19
2018-06-29T09:56:33.549Z,27.17
2018-06-29T09:57:33.514Z,27.18
2018-06-29T09:58:33.503Z,27.14
2018-06-29T09:59:33.491Z,27.21
2018-06-29T10:00:33.592Z,27.22
2018-06-29T10:01:33.522Z,27.12
2018-06-29T10:02:39.275Z,27.19
2018-06-29T10:03:34.550Z,27.17
2018-06-29T10:04:33.435Z,27.25
2018-06-29T10:05:33.471Z,27.24
2018-06-29T10:06:34.001Z,27.28
2018-06-29T10:07:33.481Z,27.28
2018-06-29T10:08:33.390Z,27.25
2018-06-29T10:09:33.394Z,27.32
2018-06-29T10:10:33.368Z,27.36
2018-06-29T10:11:33.363Z,27.29
2018-06-29T10:12:33.401Z,27.28
2018-06-29T10:13:33.663Z,27.28
2018-06-29T10:14:33.476Z,27.37
2018-06-29T10:15:33.335Z,27.31
2018-06-29T10:16:33.303Z,27.29
2018-06-29T10:17:33.412Z,27.40
2018-06-29T10:18:33.320Z,27.43
2018-06-29T10:19:33.341Z,27.36
2018-06-29T10:20:33.260Z,27.44
2018-06-29T10:21:33.314Z,27.44
2018-06-29T10:22:33.332Z,27.40
2018-06-29T10:23:33.225Z,27.39
2018-06-29T10:24:33.269Z,27.49
2018-06-29T10:25:33.273Z,27.43
2018-06-29T10:26:33.194Z,27.40
2018-06-29T10:27:33.180Z,27.36
2018-06-29T10:28:33.207Z,27.31
2018-06-29T10:29:33.161Z,27.32
2018-06-29T10:30:33.182Z,27.36
2018-06-29T10:31:33.139Z,27.29
2018-06-29T10:32:33.126Z,27.34
2018-06-29T10:33:33.148Z,27.32
2018-06-29T10:34:33.106Z,27.31
2018-06-29T10:35:33.176Z,27.27
2018-06-29T10:36:33.082Z,27.32
2018-06-29T10:37:33.080Z,27.29
2018-06-29T10:38:33.069Z,27.31
2018-06-29T10:39:33.056Z,27.31
2018-06-29T10:40:33.050Z,27.40
2018-06-29T10:41:33.127Z,27.40
2018-06-29T10:42:33.074Z,27.31
2018-06-29T10:43:33.009Z,27.25
2018-06-29T10:44:33.023Z,27.36
2018-06-29T10:45:32.987Z,27.43
2018-06-29T10:46:33.060Z,27.34
2018-06-29T10:47:37.833Z,27.44
2018-06-29T10:48:32.950Z,27.46
2018-06-29T10:49:32.982Z,27.39
2018-06-29T10:50:32.931Z,27.46
2018-06-29T10:51:32.924Z,27.41
2018-06-29T10:52:32.978Z,27.43
2018-06-29T10:53:32.968Z,27.50
2018-06-29T10:54:32.889Z,27.59
2018-06-29T10:55:32.876Z,27.51
2018-06-29T10:56:32.905Z,27.51
2018-06-29T10:57:32.864Z,27.54
2018-06-29T10:58:32.882Z,27.59
2018-06-29T10:59:32.835Z,27.62
2018-06-29T11:00:32.818Z,27.50
2018-06-29T11:01:32.988Z,27.57
2018-06-29T11:02:34.423Z,27.67
2018-06-29T11:04:44.583Z,27.66
2018-06-29T11:05:44.573Z,27.60
2018-06-29T11:06:44.564Z,27.65
2018-06-29T11:07:44.553Z,27.59
2018-06-29T11:08:44.580Z,27.59
2018-06-29T11:09:44.825Z,27.66
2018-06-29T11:10:44.566Z,27.66
2018-06-29T11:11:44.507Z,27.63
2018-06-29T11:12:44.510Z,27.55
2018-06-29T11:13:44.484Z,27.67
2018-06-29T11:14:44.477Z,27.63
2018-06-29T11:15:44.703Z,27.69
2018-06-29T11:16:44.450Z,27.63
2018-06-29T11:17:44.442Z,27.72
2018-06-29T11:18:44.432Z,27.72
2018-06-29T11:19:44.419Z,27.62
2018-06-29T11:20:44.433Z,27.70
2018-06-29T11:21:44.511Z,27.62
2018-06-29T11:22:44.430Z,27.66
2018-06-29T11:23:44.376Z,27.66
2018-06-29T11:24:44.366Z,27.65
2018-06-29T11:25:44.364Z,27.62
2018-06-29T11:26:44.382Z,27.57
2018-06-29T11:27:44.336Z,27.63
2018-06-29T11:28:44.323Z,27.59
2018-06-29T11:29:44.456Z,27.54
2018-06-29T11:30:44.491Z,27.59
2018-06-29T11:31:47.332Z,27.60
2018-06-29T11:32:44.466Z,27.59
2018-06-29T11:33:44.283Z,27.54
2018-06-29T11:34:44.406Z,27.59
2018-06-29T11:35:44.349Z,27.51
2018-06-29T11:36:44.357Z,27.57
2018-06-29T11:37:44.238Z,27.54
2018-06-29T11:38:44.255Z,27.51
2018-06-29T11:39:44.206Z,27.57
2018-06-29T11:40:44.212Z,27.59
2018-06-29T11:41:44.183Z,27.51
2018-06-29T11:42:44.179Z,27.55
2018-06-29T11:43:44.206Z,27.57
2018-06-29T11:44:44.208Z,27.55
2018-06-29T11:45:44.149Z,27.57
